createdAt,value
2024-02-02T00:06:58.833Z,8.80
2024-02-02T00:17:10.847Z,8.00
2024-02-02T00:27:23.885Z,8.00
2024-02-02T00:37:36.847Z,8.30
2024-02-02T00:47:49.919Z,7.70
2024-02-02T00:58:02.844Z,8.00
2024-02-02T01:08:15.886Z,7.20
2024-02-02T01:18:28.984Z,7.10
2024-02-02T01:28:41.844Z,7.70
2024-02-02T01:38:58.967Z,7.80
2024-02-02T01:49:11.983Z,7.60
2024-02-02T01:59:33.865Z,7.30
2024-02-02T02:09:54.883Z,7.70
2024-02-02T02:20:07.920Z,8.10
2024-02-02T02:30:27.929Z,8.50
2024-02-02T02:40:47.878Z,7.00
2024-02-02T02:51:00.956Z,7.70
2024-02-02T03:01:13.940Z,8.20
2024-02-02T03:11:26.915Z,7.40
2024-02-02T03:21:39.939Z,8.30
2024-02-02T03:31:52.916Z,7.80
2024-02-02T03:42:13.996Z,8.60
2024-02-02T03:52:31.933Z,7.50
2024-02-02T04:02:45.953Z,8.90
2024-02-02T04:12:59.014Z,8.70
2024-02-02T04:23:11.954Z,9.10
2024-02-02T04:33:25.145Z,9.50
2024-02-02T04:43:44.956Z,8.20
2024-02-02T04:53:58.013Z,9.10
2024-02-02T05:04:11.016Z,9.20
2024-02-02T05:14:23.978Z,8.80
2024-02-02T05:24:44.433Z,9.80
2024-02-02T05:34:59.050Z,8.30
2024-02-02T05:45:12.004Z,9.30
2024-02-02T05:55:24.987Z,10.30
2024-02-02T06:05:42.038Z,9.60
2024-02-02T06:15:55.024Z,9.40
2024-02-02T06:26:08.032Z,9.20
2024-02-02T06:36:21.090Z,10.50
2024-02-02T06:46:34.028Z,12.10
2024-02-02T06:56:52.041Z,8.90
2024-02-02T07:07:05.101Z,11.20
2024-02-02T07:17:29.069Z,10.10
2024-02-02T07:27:48.089Z,11.50
2024-02-02T07:38:01.056Z,9.70
2024-02-02T07:48:14.179Z,10.40
2024-02-02T07:58:27.084Z,8.90
2024-02-02T08:08:41.066Z,8.90
2024-02-02T08:18:54.212Z,9.60
2024-02-02T08:29:14.086Z,8.70
2024-02-02T08:39:34.133Z,9.80
2024-02-02T08:50:08.162Z,11.90
2024-02-02T09:00:30.119Z,12.10
2024-02-02T09:10:43.133Z,12.10
2024-02-02T09:20:59.135Z,11.80
2024-02-02T09:31:32.117Z,10.50
2024-02-02T09:42:01.166Z,9.40
2024-02-02T09:52:17.136Z,9.60
2024-02-02T10:02:30.137Z,8.40
2024-02-02T10:12:52.153Z,8.60
2024-02-02T10:23:13.188Z,8.10
2024-02-02T10:33:38.310Z,8.00
2024-02-02T10:44:14.183Z,8.10
2024-02-02T10:54:40.246Z,7.30
2024-02-02T11:05:14.192Z,8.80
2024-02-02T11:15:46.235Z,8.20
2024-02-02T11:25:59.228Z,7.90
2024-02-02T11:36:24.222Z,8.40
2024-02-02T11:46:46.223Z,8.50
2024-02-02T11:57:00.243Z,10.20
2024-02-02T12:07:32.275Z,8.30
2024-02-02T12:17:48.229Z,8.00
2024-02-02T12:28:01.235Z,8.00
2024-02-02T12:38:14.270Z,7.80
2024-02-02T12:48:27.390Z,8.40
2024-02-02T12:58:40.284Z,8.00
2024-02-02T13:08:55.304Z,9.00
2024-02-02T13:19:08.515Z,9.50
2024-02-02T13:29:33.306Z,11.20
2024-02-02T13:39:46.275Z,10.60
2024-02-02T13:50:08.321Z,10.50
2024-02-02T14:00:22.310Z,9.60
2024-02-02T14:10:37.354Z,11.00
2024-02-02T14:20:57.382Z,10.40
2024-02-02T14:31:10.304Z,9.40
2024-02-02T14:41:23.346Z,10.80
2024-02-02T14:51:37.477Z,10.20
2024-02-02T15:01:51.369Z,11.90
2024-02-02T15:12:05.776Z,10.80
2024-02-02T15:22:19.364Z,11.90
2024-02-02T15:32:39.382Z,11.70
2024-02-02T15:42:52.480Z,11.60
2024-02-02T15:53:05.409Z,12.50
2024-02-02T16:03:18.512Z,13.90
2024-02-02T16:13:31.387Z,12.90
2024-02-02T16:23:51.412Z,13.60
2024-02-02T16:34:04.639Z,11.80
2024-02-02T16:44:17.486Z,11.50
2024-02-02T16:54:30.441Z,14.70
2024-02-02T17:04:43.563Z,14.50
2024-02-02T17:14:56.437Z,14.60
2024-02-02T17:25:09.427Z,15.00
2024-02-02T17:35:24.783Z,16.40
2024-02-02T17:45:46.537Z,17.10
2024-02-02T17:55:59.464Z,17.60
2024-02-02T18:06:13.509Z,15.10
2024-02-02T18:16:26.472Z,14.70
2024-02-02T18:26:39.479Z,14.70
2024-02-02T18:36:52.552Z,13.80
2024-02-02T18:47:12.464Z,13.80
2024-02-02T18:57:25.529Z,15.20
2024-02-02T19:07:41.569Z,14.10
2024-02-02T19:17:55.500Z,14.90
2024-02-02T19:28:08.511Z,14.90
2024-02-02T19:38:21.482Z,14.30
2024-02-02T19:48:34.598Z,16.80
2024-02-02T19:58:48.508Z,14.00
2024-02-02T20:09:08.579Z,12.50
2024-02-02T20:19:21.612Z,14.60
2024-02-02T20:29:34.531Z,14.20
2024-02-02T20:39:54.634Z,13.30
2024-02-02T20:50:07.585Z,13.50
2024-02-02T21:00:27.583Z,12.80
2024-02-02T21:10:39.557Z,13.45
2024-02-02T21:20:54.566Z,11.90
2024-02-02T21:31:07.610Z,13.00
2024-02-02T21:41:20.552Z,11.90
2024-02-02T21:51:33.599Z,13.10
2024-02-02T22:01:46.641Z,13.80
2024-02-02T22:11:59.600Z,13.50
2024-02-02T22:22:13.609Z,16.20
2024-02-02T22:32:33.749Z,11.70
2024-02-02T22:42:53.626Z,11.40
2024-02-02T22:53:06.646Z,11.80
2024-02-02T23:03:20.740Z,12.00
2024-02-02T23:13:33.622Z,11.40
2024-02-02T23:23:53.632Z,13.30
2024-02-02T23:34:08.812Z,12.30
2024-02-02T23:44:21.662Z,12.30
2024-02-02T23:54:34.692Z,11.60
